sensor_id;sensor_type;location;lat;lon;timestamp;P1;durP1;ratioP1;P2;durP2;ratioP2
29384;SDS011;16367;48.736;9.218;2024-02-15T00:00:51;4.57;;;1.27;;
29384;SDS011;16367;48.736;9.218;2024-02-15T00:02:55;3.28;;;1.00;;
29384;SDS011;16367;48.736;9.218;2024-02-15T00:04:59;3.08;;;1.00;;
29384;SDS011;16367;48.736;9.218;2024-02-15T00:07:04;5.32;;;1.00;;
29384;SDS011;16367;48.736;9.218;2024-02-15T00:09:07;3.45;;;1.05;;
29384;SDS011;16367;48.736;9.218;2024-02-15T00:11:10;3.80;;;1.02;;
29384;SDS011;16367;48.736;9.218;2024-02-15T00:13:15;4.78;;;1.23;;
29384;SDS011;16367;48.736;9.218;2024-02-15T00:15:20;3.85;;;1.05;;
29384;SDS011;16367;48.736;9.218;2024-02-15T00:17:23;5.28;;;1.23;;
29384;SDS011;16367;48.736;9.218;2024-02-15T00:19:26;3.50;;;1.10;;
29384;SDS011;16367;48.736;9.218;2024-02-15T00:21:31;4.72;;;1.10;;
29384;SDS011;16367;48.736;9.218;2024-02-15T00:23:35;4.25;;;1.08;;
29384;SDS011;16367;48.736;9.218;2024-02-15T00:25:38;3.55;;;0.90;;
29384;SDS011;16367;48.736;9.218;2024-02-15T00:27:44;5.00;;;1.20;;
29384;SDS011;16367;48.736;9.218;2024-02-15T00:29:49;4.03;;;1.10;;
29384;SDS011;16367;48.736;9.218;2024-02-15T00:31:54;3.65;;;1.00;;
29384;SDS011;16367;48.736;9.218;2024-02-15T00:33:57;3.88;;;1.13;;
29384;SDS011;16367;48.736;9.218;2024-02-15T00:36:01;4.20;;;1.15;;
29384;SDS011;16367;48.736;9.218;2024-02-15T00:38:05;3.40;;;1.10;;
29384;SDS011;16367;48.736;9.218;2024-02-15T00:40:09;4.47;;;1.00;;
29384;SDS011;16367;48.736;9.218;2024-02-15T00:42:13;4.35;;;1.20;;
29384;SDS011;16367;48.736;9.218;2024-02-15T00:44:17;5.25;;;1.48;;
29384;SDS011;16367;48.736;9.218;2024-02-15T00:46:19;4.72;;;1.52;;
29384;SDS011;16367;48.736;9.218;2024-02-15T00:48:22;2.83;;;1.10;;
29384;SDS011;16367;48.736;9.218;2024-02-15T00:50:32;4.53;;;1.50;;
29384;SDS011;16367;48.736;9.218;2024-02-15T00:52:35;4.13;;;1.33;;
29384;SDS011;16367;48.736;9.218;2024-02-15T00:54:38;3.55;;;1.20;;
29384;SDS011;16367;48.736;9.218;2024-02-15T00:56:42;4.45;;;1.10;;
29384;SDS011;16367;48.736;9.218;2024-02-15T00:58:45;3.42;;;1.13;;
29384;SDS011;16367;48.736;9.218;2024-02-15T01:00:46;4.57;;;1.20;;
29384;SDS011;16367;48.736;9.218;2024-02-15T01:02:50;4.55;;;1.20;;
29384;SDS011;16367;48.736;9.218;2024-02-15T01:04:54;4.80;;;1.00;;
29384;SDS011;16367;48.736;9.218;2024-02-15T01:07:00;4.82;;;1.23;;
29384;SDS011;16367;48.736;9.218;2024-02-15T01:09:03;5.13;;;1.40;;
29384;SDS011;16367;48.736;9.218;2024-02-15T01:11:06;5.18;;;1.25;;
29384;SDS011;16367;48.736;9.218;2024-02-15T01:13:10;4.13;;;1.25;;
29384;SDS011;16367;48.736;9.218;2024-02-15T01:15:13;4.38;;;1.23;;
29384;SDS011;16367;48.736;9.218;2024-02-15T01:17:19;4.18;;;1.33;;
29384;SDS011;16367;48.736;9.218;2024-02-15T01:19:22;5.30;;;1.15;;
29384;SDS011;16367;48.736;9.218;2024-02-15T01:21:25;5.75;;;1.42;;
29384;SDS011;16367;48.736;9.218;2024-02-15T01:23:27;4.13;;;1.30;;
29384;SDS011;16367;48.736;9.218;2024-02-15T01:25:30;2.78;;;0.98;;
29384;SDS011;16367;48.736;9.218;2024-02-15T01:27:33;3.28;;;0.85;;
29384;SDS011;16367;48.736;9.218;2024-02-15T01:29:37;3.10;;;0.82;;
29384;SDS011;16367;48.736;9.218;2024-02-15T01:31:40;3.72;;;1.00;;
29384;SDS011;16367;48.736;9.218;2024-02-15T01:33:44;4.15;;;1.20;;
29384;SDS011;16367;48.736;9.218;2024-02-15T01:35:48;3.75;;;1.02;;
29384;SDS011;16367;48.736;9.218;2024-02-15T01:37:50;4.70;;;1.48;;
29384;SDS011;16367;48.736;9.218;2024-02-15T01:39:52;3.70;;;1.20;;
29384;SDS011;16367;48.736;9.218;2024-02-15T01:41:55;4.00;;;1.05;;
29384;SDS011;16367;48.736;9.218;2024-02-15T01:43:58;3.90;;;1.20;;
29384;SDS011;16367;48.736;9.218;2024-02-15T01:46:04;4.38;;;1.08;;
29384;SDS011;16367;48.736;9.218;2024-02-15T01:48:10;6.97;;;1.15;;
29384;SDS011;16367;48.736;9.218;2024-02-15T01:50:13;3.17;;;0.98;;
29384;SDS011;16367;48.736;9.218;2024-02-15T01:52:18;3.92;;;1.30;;
29384;SDS011;16367;48.736;9.218;2024-02-15T01:54:21;3.90;;;1.20;;
29384;SDS011;16367;48.736;9.218;2024-02-15T01:56:25;4.47;;;1.40;;
29384;SDS011;16367;48.736;9.218;2024-02-15T01:58:30;3.83;;;1.20;;
29384;SDS011;16367;48.736;9.218;2024-02-15T02:00:33;4.03;;;1.00;;
29384;SDS011;16367;48.736;9.218;2024-02-15T02:02:41;4.18;;;1.73;;
29384;SDS011;16367;48.736;9.218;2024-02-15T02:04:44;3.42;;;1.15;;
29384;SDS011;16367;48.736;9.218;2024-02-15T02:06:47;3.38;;;1.10;;
29384;SDS011;16367;48.736;9.218;2024-02-15T02:08:50;4.45;;;1.10;;
29384;SDS011;16367;48.736;9.218;2024-02-15T02:10:54;4.43;;;1.25;;
29384;SDS011;16367;48.736;9.218;2024-02-15T02:12:56;6.13;;;1.25;;
29384;SDS011;16367;48.736;9.218;2024-02-15T02:15:02;4.85;;;1.30;;
29384;SDS011;16367;48.736;9.218;2024-02-15T02:17:11;3.80;;;1.20;;
29384;SDS011;16367;48.736;9.218;2024-02-15T02:19:16;3.22;;;1.08;;
29384;SDS011;16367;48.736;9.218;2024-02-15T02:21:20;2.97;;;1.10;;
29384;SDS011;16367;48.736;9.218;2024-02-15T02:23:24;3.97;;;1.20;;
29384;SDS011;16367;48.736;9.218;2024-02-15T02:25:30;5.15;;;1.13;;
29384;SDS011;16367;48.736;9.218;2024-02-15T02:27:32;4.32;;;1.23;;
29384;SDS011;16367;48.736;9.218;2024-02-15T02:29:34;4.75;;;1.35;;
29384;SDS011;16367;48.736;9.218;2024-02-15T02:31:37;4.18;;;1.20;;
29384;SDS011;16367;48.736;9.218;2024-02-15T02:33:41;3.70;;;1.20;;
29384;SDS011;16367;48.736;9.218;2024-02-15T02:35:44;3.42;;;1.38;;
29384;SDS011;16367;48.736;9.218;2024-02-15T02:37:46;3.67;;;1.30;;
29384;SDS011;16367;48.736;9.218;2024-02-15T02:39:49;3.83;;;1.08;;
29384;SDS011;16367;48.736;9.218;2024-02-15T02:41:52;4.68;;;1.20;;
29384;SDS011;16367;48.736;9.218;2024-02-15T02:43:55;5.15;;;1.00;;
29384;SDS011;16367;48.736;9.218;2024-02-15T02:45:58;3.55;;;1.00;;
29384;SDS011;16367;48.736;9.218;2024-02-15T02:48:01;4.97;;;1.38;;
29384;SDS011;16367;48.736;9.218;2024-02-15T02:50:05;4.70;;;1.20;;
29384;SDS011;16367;48.736;9.218;2024-02-15T02:52:07;5.30;;;1.20;;
29384;SDS011;16367;48.736;9.218;2024-02-15T02:54:10;7.35;;;1.38;;
29384;SDS011;16367;48.736;9.218;2024-02-15T02:56:13;3.55;;;1.30;;
29384;SDS011;16367;48.736;9.218;2024-02-15T02:58:16;3.97;;;1.25;;
29384;SDS011;16367;48.736;9.218;2024-02-15T03:00:19;4.75;;;1.33;;
29384;SDS011;16367;48.736;9.218;2024-02-15T03:02:22;4.70;;;1.30;;
29384;SDS011;16367;48.736;9.218;2024-02-15T03:04:26;5.63;;;1.23;;
29384;SDS011;16367;48.736;9.218;2024-02-15T03:06:29;4.05;;;1.30;;
29384;SDS011;16367;48.736;9.218;2024-02-15T03:08:32;4.38;;;1.40;;
29384;SDS011;16367;48.736;9.218;2024-02-15T03:10:35;4.00;;;1.20;;
29384;SDS011;16367;48.736;9.218;2024-02-15T03:12:39;5.15;;;1.33;;
29384;SDS011;16367;48.736;9.218;2024-02-15T03:14:43;3.85;;;1.20;;
29384;SDS011;16367;48.736;9.218;2024-02-15T03:16:47;4.60;;;1.23;;
29384;SDS011;16367;48.736;9.218;2024-02-15T03:18:49;8.27;;;1.60;;
29384;SDS011;16367;48.736;9.218;2024-02-15T03:20:53;4.40;;;1.40;;
29384;SDS011;16367;48.736;9.218;2024-02-15T03:22:56;3.92;;;1.17;;
29384;SDS011;16367;48.736;9.218;2024-02-15T03:25:00;5.88;;;1.42;;
29384;SDS011;16367;48.736;9.218;2024-02-15T03:27:02;5.43;;;1.20;;
29384;SDS011;16367;48.736;9.218;2024-02-15T03:29:06;4.07;;;1.38;;
29384;SDS011;16367;48.736;9.218;2024-02-15T03:31:12;4.43;;;1.58;;
29384;SDS011;16367;48.736;9.218;2024-02-15T03:33:16;3.60;;;1.15;;
29384;SDS011;16367;48.736;9.218;2024-02-15T03:35:19;3.92;;;1.13;;
29384;SDS011;16367;48.736;9.218;2024-02-15T03:37:23;3.10;;;1.10;;
29384;SDS011;16367;48.736;9.218;2024-02-15T03:39:26;5.32;;;1.40;;
29384;SDS011;16367;48.736;9.218;2024-02-15T03:41:29;3.70;;;1.20;;
29384;SDS011;16367;48.736;9.218;2024-02-15T03:43:34;4.22;;;1.30;;
29384;SDS011;16367;48.736;9.218;2024-02-15T03:45:36;6.15;;;1.38;;
29384;SDS011;16367;48.736;9.218;2024-02-15T03:47:40;6.00;;;1.40;;
29384;SDS011;16367;48.736;9.218;2024-02-15T03:49:43;6.38;;;1.40;;
29384;SDS011;16367;48.736;9.218;2024-02-15T03:51:46;3.67;;;1.15;;
29384;SDS011;16367;48.736;9.218;2024-02-15T03:53:50;7.13;;;1.30;;
29384;SDS011;16367;48.736;9.218;2024-02-15T03:55:54;5.40;;;1.27;;
29384;SDS011;16367;48.736;9.218;2024-02-15T03:57:57;3.63;;;1.25;;
29384;SDS011;16367;48.736;9.218;2024-02-15T04:00:00;5.18;;;1.20;;
29384;SDS011;16367;48.736;9.218;2024-02-15T04:02:05;4.47;;;1.20;;
29384;SDS011;16367;48.736;9.218;2024-02-15T04:04:15;4.70;;;1.25;;
29384;SDS011;16367;48.736;9.218;2024-02-15T04:06:17;5.05;;;1.25;;
29384;SDS011;16367;48.736;9.218;2024-02-15T04:08:20;4.60;;;1.38;;
29384;SDS011;16367;48.736;9.218;2024-02-15T04:10:22;3.72;;;1.10;;
29384;SDS011;16367;48.736;9.218;2024-02-15T04:12:25;4.45;;;1.20;;
29384;SDS011;16367;48.736;9.218;2024-02-15T04:14:29;8.73;;;1.20;;
29384;SDS011;16367;48.736;9.218;2024-02-15T04:16:31;2.75;;;1.08;;
29384;SDS011;16367;48.736;9.218;2024-02-15T04:18:39;4.30;;;1.20;;
29384;SDS011;16367;48.736;9.218;2024-02-15T04:20:44;3.85;;;1.20;;
29384;SDS011;16367;48.736;9.218;2024-02-15T04:22:48;3.85;;;1.20;;
29384;SDS011;16367;48.736;9.218;2024-02-15T04:24:51;4.10;;;1.40;;
29384;SDS011;16367;48.736;9.218;2024-02-15T04:26:54;4.78;;;1.42;;
29384;SDS011;16367;48.736;9.218;2024-02-15T04:28:57;4.60;;;1.40;;
29384;SDS011;16367;48.736;9.218;2024-02-15T04:31:00;5.47;;;1.27;;
29384;SDS011;16367;48.736;9.218;2024-02-15T04:33:03;4.22;;;1.05;;
29384;SDS011;16367;48.736;9.218;2024-02-15T04:35:07;4.22;;;1.15;;
29384;SDS011;16367;48.736;9.218;2024-02-15T04:37:16;4.57;;;1.20;;
29384;SDS011;16367;48.736;9.218;2024-02-15T04:39:19;4.18;;;1.30;;
29384;SDS011;16367;48.736;9.218;2024-02-15T04:41:25;5.03;;;1.25;;
29384;SDS011;16367;48.736;9.218;2024-02-15T04:43:28;3.85;;;1.17;;
29384;SDS011;16367;48.736;9.218;2024-02-15T04:45:31;3.45;;;1.15;;
29384;SDS011;16367;48.736;9.218;2024-02-15T04:47:34;3.15;;;1.00;;
29384;SDS011;16367;48.736;9.218;2024-02-15T04:49:37;4.55;;;1.30;;
29384;SDS011;16367;48.736;9.218;2024-02-15T04:51:40;3.75;;;1.20;;
29384;SDS011;16367;48.736;9.218;2024-02-15T04:53:44;3.90;;;1.50;;
29384;SDS011;16367;48.736;9.218;2024-02-15T04:55:48;5.93;;;1.20;;
29384;SDS011;16367;48.736;9.218;2024-02-15T04:57:51;3.45;;;1.30;;
29384;SDS011;16367;48.736;9.218;2024-02-15T04:59:57;4.70;;;1.40;;
29384;SDS011;16367;48.736;9.218;2024-02-15T05:02:01;3.65;;;1.23;;
29384;SDS011;16367;48.736;9.218;2024-02-15T05:04:04;5.22;;;1.50;;
29384;SDS011;16367;48.736;9.218;2024-02-15T05:06:08;4.38;;;1.33;;
29384;SDS011;16367;48.736;9.218;2024-02-15T05:08:11;3.55;;;1.15;;
29384;SDS011;16367;48.736;9.218;2024-02-15T05:10:16;3.38;;;1.17;;
29384;SDS011;16367;48.736;9.218;2024-02-15T05:12:22;5.38;;;1.75;;
29384;SDS011;16367;48.736;9.218;2024-02-15T05:14:26;3.88;;;1.30;;
29384;SDS011;16367;48.736;9.218;2024-02-15T05:16:28;6.47;;;1.55;;
29384;SDS011;16367;48.736;9.218;2024-02-15T05:18:32;4.68;;;1.73;;
29384;SDS011;16367;48.736;9.218;2024-02-15T05:20:37;3.88;;;1.15;;
29384;SDS011;16367;48.736;9.218;2024-02-15T05:22:40;4.80;;;1.35;;
29384;SDS011;16367;48.736;9.218;2024-02-15T05:24:50;4.28;;;1.30;;
29384;SDS011;16367;48.736;9.218;2024-02-15T05:26:54;4.07;;;1.20;;
29384;SDS011;16367;48.736;9.218;2024-02-15T05:28:57;3.88;;;1.20;;
29384;SDS011;16367;48.736;9.218;2024-02-15T05:31:10;3.55;;;1.33;;
29384;SDS011;16367;48.736;9.218;2024-02-15T05:33:14;3.63;;;1.20;;
29384;SDS011;16367;48.736;9.218;2024-02-15T05:35:17;3.90;;;1.30;;
29384;SDS011;16367;48.736;9.218;2024-02-15T05:37:19;3.92;;;1.50;;
29384;SDS011;16367;48.736;9.218;2024-02-15T05:39:21;4.85;;;1.27;;
29384;SDS011;16367;48.736;9.218;2024-02-15T05:41:25;3.88;;;1.50;;
29384;SDS011;16367;48.736;9.218;2024-02-15T05:43:29;4.68;;;1.35;;
29384;SDS011;16367;48.736;9.218;2024-02-15T05:45:35;6.40;;;1.52;;
29384;SDS011;16367;48.736;9.218;2024-02-15T05:47:40;3.95;;;1.30;;
29384;SDS011;16367;48.736;9.218;2024-02-15T05:49:43;5.55;;;1.73;;
29384;SDS011;16367;48.736;9.218;2024-02-15T05:51:47;4.80;;;1.40;;
29384;SDS011;16367;48.736;9.218;2024-02-15T05:53:50;5.40;;;1.33;;
29384;SDS011;16367;48.736;9.218;2024-02-15T05:55:56;5.07;;;1.40;;
29384;SDS011;16367;48.736;9.218;2024-02-15T05:58:00;3.72;;;1.30;;
29384;SDS011;16367;48.736;9.218;2024-02-15T06:00:05;4.35;;;1.40;;
29384;SDS011;16367;48.736;9.218;2024-02-15T06:02:22;4.50;;;1.50;;
29384;SDS011;16367;48.736;9.218;2024-02-15T06:04:25;4.43;;;1.50;;
29384;SDS011;16367;48.736;9.218;2024-02-15T06:06:28;3.70;;;1.35;;
29384;SDS011;16367;48.736;9.218;2024-02-15T06:08:30;3.75;;;1.40;;
29384;SDS011;16367;48.736;9.218;2024-02-15T06:10:33;5.07;;;1.77;;
29384;SDS011;16367;48.736;9.218;2024-02-15T06:12:34;6.45;;;1.77;;
29384;SDS011;16367;48.736;9.218;2024-02-15T06:14:37;5.63;;;1.65;;
29384;SDS011;16367;48.736;9.218;2024-02-15T06:16:43;6.43;;;1.70;;
29384;SDS011;16367;48.736;9.218;2024-02-15T06:18:46;6.53;;;1.80;;
29384;SDS011;16367;48.736;9.218;2024-02-15T06:20:49;4.45;;;1.45;;
29384;SDS011;16367;48.736;9.218;2024-02-15T06:22:56;5.88;;;1.77;;
29384;SDS011;16367;48.736;9.218;2024-02-15T06:24:58;6.72;;;1.88;;
29384;SDS011;16367;48.736;9.218;2024-02-15T06:27:03;5.78;;;1.52;;
29384;SDS011;16367;48.736;9.218;2024-02-15T06:29:07;5.88;;;2.03;;
29384;SDS011;16367;48.736;9.218;2024-02-15T06:31:27;7.63;;;1.90;;
29384;SDS011;16367;48.736;9.218;2024-02-15T06:33:49;3.78;;;1.60;;
29384;SDS011;16367;48.736;9.218;2024-02-15T06:36:09;4.63;;;1.58;;
29384;SDS011;16367;48.736;9.218;2024-02-15T06:38:29;4.28;;;1.77;;
29384;SDS011;16367;48.736;9.218;2024-02-15T06:40:50;3.78;;;1.40;;
29384;SDS011;16367;48.736;9.218;2024-02-15T06:42:55;4.57;;;1.40;;
29384;SDS011;16367;48.736;9.218;2024-02-15T06:44:58;5.47;;;1.60;;
29384;SDS011;16367;48.736;9.218;2024-02-15T06:47:01;5.72;;;1.70;;
29384;SDS011;16367;48.736;9.218;2024-02-15T06:49:04;5.10;;;1.67;;
29384;SDS011;16367;48.736;9.218;2024-02-15T06:51:07;5.03;;;1.63;;
29384;SDS011;16367;48.736;9.218;2024-02-15T06:53:14;6.07;;;1.60;;
29384;SDS011;16367;48.736;9.218;2024-02-15T06:55:17;4.32;;;1.58;;
29384;SDS011;16367;48.736;9.218;2024-02-15T06:57:23;4.65;;;1.40;;
29384;SDS011;16367;48.736;9.218;2024-02-15T06:59:27;4.85;;;1.40;;
29384;SDS011;16367;48.736;9.218;2024-02-15T07:01:29;5.45;;;1.30;;
29384;SDS011;16367;48.736;9.218;2024-02-15T07:03:33;4.20;;;1.33;;
29384;SDS011;16367;48.736;9.218;2024-02-15T07:05:38;4.70;;;1.63;;
29384;SDS011;16367;48.736;9.218;2024-02-15T07:07:42;4.03;;;1.35;;
29384;SDS011;16367;48.736;9.218;2024-02-15T07:09:45;5.22;;;1.60;;
29384;SDS011;16367;48.736;9.218;2024-02-15T07:11:48;5.35;;;1.80;;
29384;SDS011;16367;48.736;9.218;2024-02-15T07:13:52;4.53;;;1.88;;
29384;SDS011;16367;48.736;9.218;2024-02-15T07:15:56;4.30;;;1.77;;
29384;SDS011;16367;48.736;9.218;2024-02-15T07:17:59;4.90;;;1.60;;
29384;SDS011;16367;48.736;9.218;2024-02-15T07:20:02;6.47;;;2.25;;
29384;SDS011;16367;48.736;9.218;2024-02-15T07:22:07;6.50;;;1.80;;
29384;SDS011;16367;48.736;9.218;2024-02-15T07:24:10;5.10;;;1.77;;
29384;SDS011;16367;48.736;9.218;2024-02-15T07:26:13;5.07;;;1.58;;
29384;SDS011;16367;48.736;9.218;2024-02-15T07:28:16;5.95;;;1.98;;
29384;SDS011;16367;48.736;9.218;2024-02-15T07:30:19;5.28;;;1.65;;
29384;SDS011;16367;48.736;9.218;2024-02-15T07:32:26;5.22;;;1.70;;
29384;SDS011;16367;48.736;9.218;2024-02-15T07:34:29;3.88;;;1.33;;
29384;SDS011;16367;48.736;9.218;2024-02-15T07:36:32;4.57;;;1.45;;
29384;SDS011;16367;48.736;9.218;2024-02-15T07:38:36;5.38;;;1.60;;
29384;SDS011;16367;48.736;9.218;2024-02-15T07:40:38;5.28;;;1.75;;
29384;SDS011;16367;48.736;9.218;2024-02-15T07:42:41;4.03;;;1.40;;
29384;SDS011;16367;48.736;9.218;2024-02-15T07:44:44;5.05;;;1.50;;
29384;SDS011;16367;48.736;9.218;2024-02-15T07:46:46;4.63;;;1.60;;
29384;SDS011;16367;48.736;9.218;2024-02-15T07:48:49;4.60;;;1.60;;
29384;SDS011;16367;48.736;9.218;2024-02-15T07:50:53;4.45;;;1.50;;
29384;SDS011;16367;48.736;9.218;2024-02-15T07:52:56;6.32;;;1.70;;
29384;SDS011;16367;48.736;9.218;2024-02-15T07:55:00;4.40;;;1.50;;
29384;SDS011;16367;48.736;9.218;2024-02-15T07:57:10;3.58;;;1.20;;
29384;SDS011;16367;48.736;9.218;2024-02-15T07:59:13;4.70;;;1.60;;
29384;SDS011;16367;48.736;9.218;2024-02-15T08:01:17;3.90;;;1.25;;
29384;SDS011;16367;48.736;9.218;2024-02-15T08:03:22;4.15;;;1.40;;
29384;SDS011;16367;48.736;9.218;2024-02-15T08:05:26;4.70;;;1.58;;
29384;SDS011;16367;48.736;9.218;2024-02-15T08:07:28;4.57;;;1.60;;
29384;SDS011;16367;48.736;9.218;2024-02-15T08:09:34;6.30;;;1.85;;
29384;SDS011;16367;48.736;9.218;2024-02-15T08:11:42;6.95;;;2.00;;
29384;SDS011;16367;48.736;9.218;2024-02-15T08:13:45;4.82;;;1.70;;
29384;SDS011;16367;48.736;9.218;2024-02-15T08:15:49;6.00;;;1.90;;
29384;SDS011;16367;48.736;9.218;2024-02-15T08:17:53;8.57;;;2.70;;
29384;SDS011;16367;48.736;9.218;2024-02-15T08:19:57;5.00;;;1.70;;
29384;SDS011;16367;48.736;9.218;2024-02-15T08:22:03;3.92;;;1.50;;
29384;SDS011;16367;48.736;9.218;2024-02-15T08:24:06;4.32;;;1.52;;
29384;SDS011;16367;48.736;9.218;2024-02-15T08:26:10;4.65;;;1.42;;
29384;SDS011;16367;48.736;9.218;2024-02-15T08:28:15;6.20;;;1.70;;
29384;SDS011;16367;48.736;9.218;2024-02-15T08:30:16;5.60;;;1.67;;
29384;SDS011;16367;48.736;9.218;2024-02-15T08:32:25;4.00;;;1.27;;
29384;SDS011;16367;48.736;9.218;2024-02-15T08:34:27;3.60;;;1.63;;
29384;SDS011;16367;48.736;9.218;2024-02-15T08:36:30;6.10;;;1.75;;
29384;SDS011;16367;48.736;9.218;2024-02-15T08:38:32;7.85;;;1.67;;
29384;SDS011;16367;48.736;9.218;2024-02-15T08:40:35;4.30;;;1.48;;
29384;SDS011;16367;48.736;9.218;2024-02-15T08:42:38;5.18;;;1.55;;
29384;SDS011;16367;48.736;9.218;2024-02-15T08:44:41;4.25;;;1.30;;
29384;SDS011;16367;48.736;9.218;2024-02-15T08:46:44;4.68;;;1.50;;
29384;SDS011;16367;48.736;9.218;2024-02-15T08:48:49;5.55;;;1.42;;
29384;SDS011;16367;48.736;9.218;2024-02-15T08:50:52;4.28;;;1.63;;
29384;SDS011;16367;48.736;9.218;2024-02-15T08:52:54;4.07;;;1.20;;
29384;SDS011;16367;48.736;9.218;2024-02-15T08:54:58;5.10;;;1.50;;
29384;SDS011;16367;48.736;9.218;2024-02-15T08:57:02;6.30;;;1.50;;
29384;SDS011;16367;48.736;9.218;2024-02-15T08:59:05;4.47;;;1.52;;
29384;SDS011;16367;48.736;9.218;2024-02-15T09:01:09;5.82;;;1.67;;
29384;SDS011;16367;48.736;9.218;2024-02-15T09:05:17;4.78;;;1.60;;
29384;SDS011;16367;48.736;9.218;2024-02-15T09:07:20;4.57;;;1.67;;
29384;SDS011;16367;48.736;9.218;2024-02-15T09:09:23;4.93;;;1.48;;
29384;SDS011;16367;48.736;9.218;2024-02-15T09:11:28;4.50;;;1.58;;
29384;SDS011;16367;48.736;9.218;2024-02-15T09:13:31;4.47;;;1.67;;
29384;SDS011;16367;48.736;9.218;2024-02-15T09:15:35;5.95;;;1.80;;
29384;SDS011;16367;48.736;9.218;2024-02-15T09:17:41;4.05;;;1.63;;
29384;SDS011;16367;48.736;9.218;2024-02-15T09:19:46;4.63;;;1.52;;
29384;SDS011;16367;48.736;9.218;2024-02-15T09:21:50;4.65;;;1.73;;
29384;SDS011;16367;48.736;9.218;2024-02-15T09:23:53;4.50;;;1.80;;
29384;SDS011;16367;48.736;9.218;2024-02-15T09:25:56;5.15;;;1.75;;
29384;SDS011;16367;48.736;9.218;2024-02-15T09:27:59;6.32;;;2.00;;
29384;SDS011;16367;48.736;9.218;2024-02-15T09:30:02;5.80;;;1.90;;
29384;SDS011;16367;48.736;9.218;2024-02-15T09:32:09;5.05;;;2.00;;
29384;SDS011;16367;48.736;9.218;2024-02-15T09:34:13;5.22;;;1.77;;
29384;SDS011;16367;48.736;9.218;2024-02-15T09:36:16;5.47;;;1.80;;
29384;SDS011;16367;48.736;9.218;2024-02-15T09:38:19;6.68;;;2.00;;
29384;SDS011;16367;48.736;9.218;2024-02-15T09:40:23;5.03;;;1.88;;
29384;SDS011;16367;48.736;9.218;2024-02-15T09:42:27;4.85;;;2.00;;
29384;SDS011;16367;48.736;9.218;2024-02-15T09:44:30;7.25;;;2.13;;
29384;SDS011;16367;48.736;9.218;2024-02-15T09:46:32;4.78;;;1.75;;
29384;SDS011;16367;48.736;9.218;2024-02-15T09:48:39;4.90;;;2.00;;
29384;SDS011;16367;48.736;9.218;2024-02-15T09:50:47;6.38;;;1.63;;
29384;SDS011;16367;48.736;9.218;2024-02-15T09:52:56;4.85;;;1.70;;
29384;SDS011;16367;48.736;9.218;2024-02-15T09:54:59;5.53;;;1.50;;
29384;SDS011;16367;48.736;9.218;2024-02-15T09:57:04;5.05;;;1.60;;
29384;SDS011;16367;48.736;9.218;2024-02-15T09:59:08;4.80;;;1.98;;
29384;SDS011;16367;48.736;9.218;2024-02-15T10:01:11;5.63;;;1.88;;
29384;SDS011;16367;48.736;9.218;2024-02-15T10:03:16;5.38;;;1.73;;
29384;SDS011;16367;48.736;9.218;2024-02-15T10:05:23;3.70;;;1.40;;
29384;SDS011;16367;48.736;9.218;2024-02-15T10:07:27;5.55;;;1.75;;
29384;SDS011;16367;48.736;9.218;2024-02-15T10:09:30;4.97;;;1.50;;
29384;SDS011;16367;48.736;9.218;2024-02-15T10:11:33;6.10;;;1.75;;
29384;SDS011;16367;48.736;9.218;2024-02-15T10:13:36;4.30;;;1.42;;
29384;SDS011;16367;48.736;9.218;2024-02-15T10:15:40;6.03;;;2.10;;
29384;SDS011;16367;48.736;9.218;2024-02-15T10:17:42;4.97;;;1.63;;
29384;SDS011;16367;48.736;9.218;2024-02-15T10:20:02;5.95;;;1.70;;
29384;SDS011;16367;48.736;9.218;2024-02-15T10:22:06;5.57;;;1.75;;
29384;SDS011;16367;48.736;9.218;2024-02-15T10:24:11;4.10;;;1.52;;
29384;SDS011;16367;48.736;9.218;2024-02-15T10:26:23;4.45;;;1.50;;
29384;SDS011;16367;48.736;9.218;2024-02-15T10:28:25;4.15;;;1.50;;
29384;SDS011;16367;48.736;9.218;2024-02-15T10:30:30;4.43;;;1.30;;
29384;SDS011;16367;48.736;9.218;2024-02-15T10:32:34;5.45;;;1.65;;
29384;SDS011;16367;48.736;9.218;2024-02-15T10:34:43;5.00;;;1.42;;
29384;SDS011;16367;48.736;9.218;2024-02-15T10:36:47;4.82;;;1.23;;
29384;SDS011;16367;48.736;9.218;2024-02-15T10:38:51;4.97;;;1.30;;
29384;SDS011;16367;48.736;9.218;2024-02-15T10:40:55;3.90;;;1.50;;
29384;SDS011;16367;48.736;9.218;2024-02-15T10:43:05;4.82;;;1.50;;
29384;SDS011;16367;48.736;9.218;2024-02-15T10:45:09;3.83;;;1.35;;
29384;SDS011;16367;48.736;9.218;2024-02-15T10:47:14;6.78;;;1.50;;
29384;SDS011;16367;48.736;9.218;2024-02-15T10:49:17;4.72;;;2.20;;
29384;SDS011;16367;48.736;9.218;2024-02-15T10:51:22;3.70;;;1.20;;
29384;SDS011;16367;48.736;9.218;2024-02-15T10:53:27;5.60;;;1.23;;
29384;SDS011;16367;48.736;9.218;2024-02-15T10:55:35;3.65;;;1.10;;
29384;SDS011;16367;48.736;9.218;2024-02-15T10:57:43;4.10;;;1.17;;
29384;SDS011;16367;48.736;9.218;2024-02-15T10:59:54;4.65;;;1.30;;
29384;SDS011;16367;48.736;9.218;2024-02-15T11:01:59;3.17;;;1.00;;
29384;SDS011;16367;48.736;9.218;2024-02-15T11:04:07;3.78;;;0.88;;
29384;SDS011;16367;48.736;9.218;2024-02-15T11:06:11;4.13;;;0.90;;
29384;SDS011;16367;48.736;9.218;2024-02-15T11:08:15;4.57;;;1.00;;
29384;SDS011;16367;48.736;9.218;2024-02-15T11:10:18;4.53;;;1.02;;
29384;SDS011;16367;48.736;9.218;2024-02-15T11:12:21;3.80;;;1.15;;
29384;SDS011;16367;48.736;9.218;2024-02-15T11:14:27;2.78;;;0.93;;
29384;SDS011;16367;48.736;9.218;2024-02-15T11:18:52;2.97;;;0.75;;
29384;SDS011;16367;48.736;9.218;2024-02-15T11:20:56;5.97;;;0.88;;
29384;SDS011;16367;48.736;9.218;2024-02-15T11:23:01;3.13;;;1.05;;
29384;SDS011;16367;48.736;9.218;2024-02-15T11:25:06;2.50;;;0.80;;
29384;SDS011;16367;48.736;9.218;2024-02-15T11:27:10;2.88;;;0.80;;
29384;SDS011;16367;48.736;9.218;2024-02-15T11:31:55;4.03;;;0.90;;
29384;SDS011;16367;48.736;9.218;2024-02-15T11:33:58;4.35;;;1.00;;
29384;SDS011;16367;48.736;9.218;2024-02-15T11:36:02;3.38;;;1.00;;
29384;SDS011;16367;48.736;9.218;2024-02-15T11:38:08;4.78;;;1.02;;
29384;SDS011;16367;48.736;9.218;2024-02-15T11:40:15;2.83;;;0.70;;
29384;SDS011;16367;48.736;9.218;2024-02-15T11:42:24;3.85;;;1.00;;
29384;SDS011;16367;48.736;9.218;2024-02-15T11:44:30;3.75;;;0.90;;
29384;SDS011;16367;48.736;9.218;2024-02-15T11:46:34;4.80;;;0.95;;
29384;SDS011;16367;48.736;9.218;2024-02-15T11:48:38;5.10;;;1.20;;
29384;SDS011;16367;48.736;9.218;2024-02-15T11:50:41;5.68;;;1.10;;
29384;SDS011;16367;48.736;9.218;2024-02-15T11:52:44;4.03;;;1.05;;
29384;SDS011;16367;48.736;9.218;2024-02-15T11:54:49;3.72;;;0.90;;
29384;SDS011;16367;48.736;9.218;2024-02-15T11:56:52;3.97;;;1.13;;
29384;SDS011;16367;48.736;9.218;2024-02-15T11:59:06;3.50;;;1.05;;
29384;SDS011;16367;48.736;9.218;2024-02-15T12:01:09;6.10;;;1.55;;
29384;SDS011;16367;48.736;9.218;2024-02-15T12:03:32;4.72;;;1.00;;
29384;SDS011;16367;48.736;9.218;2024-02-15T12:06:07;2.72;;;0.85;;
29384;SDS011;16367;48.736;9.218;2024-02-15T12:08:28;4.68;;;1.02;;
29384;SDS011;16367;48.736;9.218;2024-02-15T12:10:56;4.30;;;0.90;;
29384;SDS011;16367;48.736;9.218;2024-02-15T12:13:17;4.25;;;0.90;;
29384;SDS011;16367;48.736;9.218;2024-02-15T12:15:37;3.20;;;1.00;;
29384;SDS011;16367;48.736;9.218;2024-02-15T12:18:12;5.13;;;1.02;;
29384;SDS011;16367;48.736;9.218;2024-02-15T12:20:35;4.38;;;1.15;;
29384;SDS011;16367;48.736;9.218;2024-02-15T12:22:39;5.28;;;0.90;;
29384;SDS011;16367;48.736;9.218;2024-02-15T12:24:52;8.30;;;1.40;;
29384;SDS011;16367;48.736;9.218;2024-02-15T12:26:59;2.78;;;0.82;;
29384;SDS011;16367;48.736;9.218;2024-02-15T12:29:04;4.18;;;1.00;;
29384;SDS011;16367;48.736;9.218;2024-02-15T12:31:33;4.40;;;0.90;;
29384;SDS011;16367;48.736;9.218;2024-02-15T12:34:04;3.03;;;0.80;;
29384;SDS011;16367;48.736;9.218;2024-02-15T12:36:33;3.45;;;0.80;;
29384;SDS011;16367;48.736;9.218;2024-02-15T12:38:38;4.32;;;1.00;;
29384;SDS011;16367;48.736;9.218;2024-02-15T12:40:40;3.08;;;0.82;;